createdAt,value
2017-10-26T00:01:02.513Z,7.70
2017-10-26T00:03:30.042Z,8.73
2017-10-26T00:05:57.600Z,8.33
2017-10-26T00:08:25.122Z,7.30
2017-10-26T00:10:52.643Z,8.00
2017-10-26T00:13:20.971Z,8.00
2017-10-26T00:15:48.499Z,8.23
2017-10-26T00:18:16.411Z,7.97
2017-10-26T00:20:43.999Z,8.87
2017-10-26T00:23:11.523Z,8.00
2017-10-26T00:25:39.046Z,7.90
2017-10-26T00:28:06.595Z,7.40
2017-10-26T00:30:34.884Z,8.00
2017-10-26T00:33:02.415Z,8.23
2017-10-26T00:35:29.971Z,8.97
2017-10-26T00:37:57.499Z,7.70
2017-10-26T00:40:25.020Z,7.63
2017-10-26T00:42:52.594Z,6.90
2017-10-26T00:45:20.123Z,8.38
2017-10-26T00:47:47.647Z,6.70
2017-10-26T00:50:16.460Z,7.57
2017-10-26T00:52:43.992Z,7.40
2017-10-26T00:55:11.525Z,7.60
2017-10-26T00:57:39.072Z,8.70
2017-10-26T01:00:06.607Z,8.80
2017-10-26T01:02:34.136Z,7.87
2017-10-26T01:05:01.740Z,8.10
2017-10-26T01:07:30.023Z,8.37
2017-10-26T01:09:57.551Z,9.27
2017-10-26T01:12:25.111Z,9.02
2017-10-26T01:14:52.640Z,9.70
2017-10-26T01:17:20.304Z,9.02
2017-10-26T01:19:47.864Z,9.23
2017-10-26T01:22:16.412Z,10.00
2017-10-26T01:24:43.944Z,9.47
2017-10-26T01:27:11.524Z,8.68
2017-10-26T01:29:39.820Z,9.80
2017-10-26T01:32:07.351Z,9.53
2017-10-26T01:34:34.903Z,9.30
2017-10-26T01:37:02.435Z,9.45
2017-10-26T01:39:29.972Z,10.43
2017-10-26T01:41:57.534Z,9.30
2017-10-26T01:44:25.067Z,9.33
2017-10-26T01:46:52.600Z,9.07
2017-10-26T01:49:20.219Z,9.55
2017-10-26T01:51:47.752Z,9.07
2017-10-26T01:54:16.395Z,8.90
2017-10-26T01:56:43.963Z,9.03
2017-10-26T01:59:11.487Z,8.90
2017-10-26T02:01:39.007Z,8.47
2017-10-26T02:04:06.555Z,8.27
2017-10-26T02:06:34.085Z,9.77
2017-10-26T02:09:01.615Z,10.67
2017-10-26T02:11:29.198Z,10.97
2017-10-26T02:13:56.725Z,11.37
2017-10-26T02:16:25.031Z,11.80
2017-10-26T02:18:52.991Z,12.90
2017-10-26T02:21:20.520Z,15.37
2017-10-26T02:23:48.051Z,14.93
2017-10-26T02:26:17.244Z,14.73
2017-10-26T02:28:56.621Z,16.77
2017-10-26T02:31:35.803Z,17.87
2017-10-26T02:34:03.336Z,19.70
2017-10-26T02:36:30.873Z,19.57
2017-10-26T02:38:58.440Z,23.30
2017-10-26T02:41:25.980Z,25.50
2017-10-26T02:43:53.512Z,26.20
2017-10-26T02:46:21.835Z,26.52
2017-10-26T02:48:49.372Z,27.03
2017-10-26T02:51:17.668Z,26.43
2017-10-26T02:53:45.256Z,30.00
2017-10-26T02:56:13.773Z,30.00
2017-10-26T02:58:42.072Z,30.57
2017-10-26T03:01:09.627Z,29.95
2017-10-26T03:03:37.928Z,29.77
2017-10-26T03:06:05.467Z,31.25
2017-10-26T03:08:33.027Z,32.08
2017-10-26T03:11:00.559Z,30.73
2017-10-26T03:13:28.097Z,31.80
2017-10-26T03:15:55.691Z,31.83
2017-10-26T03:18:23.990Z,29.50
2017-10-26T03:20:51.669Z,31.17
2017-10-26T03:23:19.234Z,28.83
2017-10-26T03:25:46.768Z,27.17
2017-10-26T03:28:15.496Z,27.50
2017-10-26T03:30:43.058Z,29.83
2017-10-26T03:33:10.590Z,29.80
2017-10-26T03:35:38.119Z,28.30
2017-10-26T03:38:05.703Z,30.20
2017-10-26T03:40:33.240Z,32.13
2017-10-26T03:43:00.772Z,29.37
2017-10-26T03:45:28.324Z,27.63
2017-10-26T03:47:55.856Z,29.50
2017-10-26T03:50:23.391Z,28.20
2017-10-26T03:52:50.956Z,28.23
2017-10-26T03:55:18.488Z,30.35
2017-10-26T03:57:46.795Z,30.33
2017-10-26T04:00:16.600Z,30.27
2017-10-26T04:02:44.132Z,31.87
2017-10-26T04:05:11.659Z,32.70
2017-10-26T04:07:39.219Z,37.20
2017-10-26T04:10:06.764Z,34.50
2017-10-26T04:12:34.301Z,35.60
2017-10-26T04:15:01.867Z,37.20
2017-10-26T04:17:29.402Z,39.05
2017-10-26T04:19:56.935Z,37.90
2017-10-26T04:22:24.789Z,38.33
2017-10-26T04:24:52.329Z,37.63
2017-10-26T04:27:19.890Z,38.20
2017-10-26T04:29:47.458Z,40.60
2017-10-26T04:32:16.454Z,38.30
2017-10-26T04:34:43.993Z,39.70
2017-10-26T04:37:11.572Z,41.07
2017-10-26T04:39:39.100Z,33.43
2017-10-26T04:42:06.635Z,39.90
2017-10-26T04:44:34.985Z,38.27
2017-10-26T04:47:02.523Z,39.05
2017-10-26T04:49:30.066Z,41.27
2017-10-26T04:51:57.632Z,42.90
2017-10-26T04:54:25.167Z,41.57
2017-10-26T04:56:53.475Z,44.33
2017-10-26T04:59:21.051Z,42.90
2017-10-26T05:01:48.582Z,39.93
2017-10-26T05:04:16.423Z,41.80
2017-10-26T05:06:44.773Z,38.70
2017-10-26T05:09:12.307Z,40.80
2017-10-26T05:11:39.842Z,37.93
2017-10-26T05:14:07.416Z,38.55
2017-10-26T05:16:34.947Z,36.47
2017-10-26T05:19:02.529Z,32.63
2017-10-26T05:21:30.151Z,32.50
2017-10-26T05:23:57.691Z,33.03
2017-10-26T05:26:25.223Z,30.73
2017-10-26T05:28:52.808Z,29.87
2017-10-26T05:31:21.850Z,27.27
2017-10-26T05:33:49.541Z,25.62
2017-10-26T05:36:17.140Z,25.37
2017-10-26T05:38:44.684Z,34.47
2017-10-26T05:41:12.213Z,26.67
2017-10-26T05:43:39.791Z,26.40
2017-10-26T05:46:07.324Z,26.90
2017-10-26T05:48:34.900Z,31.87
2017-10-26T05:51:02.495Z,26.57
2017-10-26T05:53:30.040Z,28.40
2017-10-26T05:55:57.578Z,31.97
2017-10-26T05:58:25.143Z,29.23
2017-10-26T06:00:52.682Z,29.07
2017-10-26T06:03:20.224Z,29.00
2017-10-26T06:05:47.779Z,27.40
2017-10-26T06:08:16.408Z,26.52
2017-10-26T06:10:43.947Z,27.50
2017-10-26T06:13:11.532Z,27.27
2017-10-26T06:15:39.067Z,29.30
2017-10-26T06:18:06.616Z,29.67
2017-10-26T06:20:34.188Z,29.80
2017-10-26T06:23:01.728Z,28.47
2017-10-26T06:25:30.431Z,28.07
2017-10-26T06:27:57.991Z,29.70
2017-10-26T06:30:25.526Z,30.00
2017-10-26T06:32:53.823Z,28.87
2017-10-26T06:35:21.591Z,32.47
2017-10-26T06:37:49.132Z,32.13
2017-10-26T06:40:17.436Z,32.10
2017-10-26T06:42:44.996Z,31.30
2017-10-26T06:45:12.532Z,32.20
2017-10-26T06:47:40.072Z,33.33
2017-10-26T06:50:08.127Z,33.50
2017-10-26T06:52:35.658Z,35.50
2017-10-26T06:55:04.956Z,35.23
2017-10-26T06:57:32.560Z,37.17
2017-10-26T07:00:00.104Z,40.93
2017-10-26T07:02:27.640Z,45.60
2017-10-26T07:04:55.213Z,42.83
2017-10-26T07:07:22.750Z,41.77
2017-10-26T07:09:50.287Z,45.30
2017-10-26T07:12:17.859Z,42.50
2017-10-26T07:14:45.403Z,39.95
2017-10-26T07:17:15.352Z,39.05
2017-10-26T07:19:42.948Z,37.00
2017-10-26T07:22:10.483Z,35.55
2017-10-26T07:24:38.027Z,34.50
2017-10-26T07:27:05.585Z,32.87
2017-10-26T07:29:33.123Z,31.62
2017-10-26T07:32:00.694Z,29.87
2017-10-26T07:34:28.263Z,30.90
2017-10-26T07:36:55.804Z,32.80
2017-10-26T07:39:23.343Z,30.83
2017-10-26T07:41:50.936Z,33.47
2017-10-26T07:44:18.464Z,28.40
2017-10-26T07:46:46.772Z,34.90
2017-10-26T07:49:15.536Z,31.92
2017-10-26T07:51:43.851Z,32.17
2017-10-26T07:54:12.156Z,27.80
2017-10-26T07:56:39.718Z,31.03
2017-10-26T07:59:07.264Z,28.60
2017-10-26T08:01:34.805Z,31.63
2017-10-26T08:04:02.410Z,26.83
2017-10-26T08:06:29.947Z,25.10
2017-10-26T08:08:57.488Z,21.42
2017-10-26T08:11:25.056Z,21.53
2017-10-26T08:13:52.621Z,21.90
2017-10-26T08:16:20.161Z,21.08
2017-10-26T08:18:47.724Z,22.77
2017-10-26T08:21:17.232Z,22.58
2017-10-26T08:23:44.772Z,21.13
2017-10-26T08:26:12.356Z,21.70
2017-10-26T08:28:39.895Z,20.57
2017-10-26T08:31:07.434Z,22.80
2017-10-26T08:33:34.998Z,21.30
2017-10-26T08:36:03.301Z,21.08
2017-10-26T08:38:30.850Z,21.73
2017-10-26T08:40:58.418Z,23.00
2017-10-26T08:43:25.951Z,22.00
2017-10-26T08:45:53.492Z,25.98
2017-10-26T08:48:21.892Z,26.50
2017-10-26T08:50:50.198Z,25.07
2017-10-26T08:53:17.743Z,25.10
2017-10-26T08:55:45.308Z,23.93
2017-10-26T08:58:15.332Z,21.87
2017-10-26T09:00:42.865Z,22.47
2017-10-26T09:03:11.209Z,19.70
2017-10-26T09:05:38.743Z,17.80
2017-10-26T09:08:06.294Z,17.60
2017-10-26T09:10:33.876Z,17.40
2017-10-26T09:13:01.424Z,15.60
2017-10-26T09:15:29.159Z,15.20
2017-10-26T09:17:56.728Z,14.30
2017-10-26T09:20:26.095Z,12.70
2017-10-26T09:22:53.627Z,12.67
2017-10-26T09:25:21.187Z,12.47
2017-10-26T09:27:48.722Z,12.50
2017-10-26T09:30:16.860Z,12.50
2017-10-26T09:32:45.213Z,12.82
2017-10-26T09:35:13.671Z,12.10
2017-10-26T09:37:41.203Z,11.20
2017-10-26T09:40:08.763Z,11.07
2017-10-26T09:42:36.300Z,11.10
2017-10-26T09:45:03.844Z,10.00
2017-10-26T09:47:31.412Z,10.00
2017-10-26T09:49:59.719Z,8.53
2017-10-26T09:52:28.379Z,8.47
2017-10-26T09:54:56.731Z,8.87
2017-10-26T09:57:24.269Z,7.73
2017-10-26T09:59:51.798Z,6.33
2017-10-26T10:02:19.356Z,7.70
2017-10-26T10:04:46.891Z,7.37
2017-10-26T10:07:14.583Z,8.43
2017-10-26T10:17:12.218Z,7.00
2017-10-26T10:19:39.764Z,7.47
2017-10-26T10:22:07.314Z,5.53
2017-10-26T10:24:34.891Z,5.13
2017-10-26T10:27:02.425Z,5.37
2017-10-26T10:29:29.981Z,5.37
2017-10-26T10:31:58.443Z,5.37
2017-10-26T10:34:25.975Z,5.20
2017-10-26T10:36:53.520Z,5.10
2017-10-26T10:39:21.445Z,5.17
2017-10-26T10:41:49.775Z,5.60
2017-10-26T10:44:17.363Z,4.83
2017-10-26T10:46:45.224Z,4.50
2017-10-26T10:49:14.528Z,5.20
2017-10-26T10:51:42.101Z,4.20
2017-10-26T10:54:10.438Z,4.37
2017-10-26T10:56:38.084Z,4.67
2017-10-26T10:59:11.247Z,4.43
2017-10-26T11:01:39.725Z,4.93
2017-10-26T11:04:07.475Z,4.80
2017-10-26T11:06:35.203Z,5.03
2017-10-26T11:09:03.302Z,4.30
2017-10-26T11:11:30.904Z,5.10
2017-10-26T11:13:58.507Z,4.78
2017-10-26T11:16:26.190Z,4.80
2017-10-26T11:18:53.826Z,5.30
2017-10-26T11:21:21.463Z,5.03
2017-10-26T11:23:49.207Z,5.63
2017-10-26T11:26:16.785Z,5.70
2017-10-26T11:28:44.676Z,5.60
2017-10-26T11:31:12.250Z,5.77
2017-10-26T11:33:40.415Z,5.67
2017-10-26T11:36:08.031Z,5.10
2017-10-26T11:38:35.893Z,5.27
2017-10-26T11:41:03.832Z,5.18
2017-10-26T11:43:31.638Z,6.00
2017-10-26T11:45:59.211Z,7.00
2017-10-26T11:48:26.806Z,5.70
2017-10-26T11:50:54.551Z,5.87
2017-10-26T11:53:22.434Z,6.20
2017-10-26T11:55:50.052Z,6.07
2017-10-26T11:58:17.825Z,6.17
2017-10-26T12:00:45.577Z,6.10
2017-10-26T12:03:15.454Z,5.65
2017-10-26T12:05:43.204Z,6.00
2017-10-26T12:08:10.750Z,5.40
2017-10-26T12:10:38.328Z,5.53
2017-10-26T12:13:05.888Z,6.23
2017-10-26T12:15:33.420Z,5.57
2017-10-26T12:18:00.943Z,6.07
2017-10-26T12:20:29.272Z,6.00
2017-10-26T12:22:56.809Z,6.23
2017-10-26T12:25:24.344Z,6.90
2017-10-26T12:27:51.919Z,5.93
2017-10-26T12:30:19.463Z,5.30
2017-10-26T12:32:47.760Z,6.17
2017-10-26T12:35:16.507Z,5.85
2017-10-26T12:37:44.049Z,6.23
2017-10-26T12:40:11.573Z,6.10
2017-10-26T12:42:39.131Z,6.40
2017-10-26T12:45:07.376Z,6.00
2017-10-26T12:47:34.903Z,5.80
2017-10-26T12:50:02.517Z,5.30
2017-10-26T12:52:30.061Z,6.23
2017-10-26T12:54:57.587Z,5.50
2017-10-26T12:57:25.185Z,5.70
2017-10-26T12:59:54.431Z,5.70
2017-10-26T13:02:21.963Z,5.30
2017-10-26T13:04:49.532Z,5.20
2017-10-26T13:07:17.063Z,5.07
2017-10-26T13:09:44.592Z,5.20
2017-10-26T13:12:14.177Z,5.57
2017-10-26T13:14:41.707Z,4.90
2017-10-26T13:17:09.244Z,5.60
2017-10-26T13:19:37.184Z,4.90
2017-10-26T13:22:05.679Z,4.50
2017-10-26T13:24:33.208Z,4.53
2017-10-26T13:27:01.337Z,4.60
2017-10-26T13:29:28.871Z,4.70
2017-10-26T13:31:56.756Z,4.72
2017-10-26T13:34:25.374Z,4.33
2017-10-26T13:36:53.073Z,4.63
2017-10-26T13:39:21.483Z,4.90
2017-10-26T13:41:49.808Z,4.50
2017-10-26T13:44:17.343Z,5.00
2017-10-26T13:46:44.876Z,5.10
2017-10-26T13:49:12.461Z,5.22
2017-10-26T13:51:39.995Z,5.03
2017-10-26T13:54:08.287Z,4.70
2017-10-26T13:56:35.883Z,4.40
2017-10-26T13:59:03.759Z,4.93
2017-10-26T14:01:31.292Z,4.55
2017-10-26T14:03:58.868Z,4.63
2017-10-26T14:06:27.553Z,5.73
2017-10-26T14:08:55.101Z,5.83
2017-10-26T14:11:22.663Z,7.17
2017-10-26T14:13:50.239Z,7.37
2017-10-26T14:16:17.763Z,8.07
2017-10-26T14:18:45.525Z,7.90
2017-10-26T14:21:25.319Z,7.97
2017-10-26T14:27:02.033Z,8.27
2017-10-26T14:29:29.664Z,9.27
2017-10-26T14:31:57.236Z,9.03
2017-10-26T14:34:26.220Z,8.73
2017-10-26T14:36:53.767Z,8.80
2017-10-26T14:39:23.300Z,8.90
2017-10-26T14:41:50.917Z,10.37
2017-10-26T14:44:18.486Z,9.20
2017-10-26T14:46:46.065Z,9.17
2017-10-26T14:49:25.444Z,9.23
2017-10-26T14:53:23.160Z,10.70
2017-10-26T14:58:53.839Z,10.23
2017-10-26T15:01:21.551Z,10.50
2017-10-26T15:03:49.106Z,11.67
2017-10-26T15:06:18.668Z,12.18
2017-10-26T15:08:46.496Z,12.40
2017-10-26T15:11:25.979Z,12.07
2017-10-26T15:16:28.803Z,13.03
2017-10-26T15:18:57.200Z,13.47
2017-10-26T15:21:24.798Z,14.27
2017-10-26T15:23:53.461Z,13.43
2017-10-26T15:26:22.001Z,13.62
2017-10-26T15:28:50.006Z,13.90
2017-10-26T15:31:18.624Z,14.10
2017-10-26T15:33:46.208Z,15.23
2017-10-26T15:36:26.368Z,14.60
2017-10-26T15:41:28.136Z,15.20
2017-10-26T15:43:55.775Z,14.83
2017-10-26T15:46:23.394Z,15.70
2017-10-26T15:48:51.064Z,17.03
2017-10-26T15:51:18.730Z,14.52
2017-10-26T15:53:46.530Z,16.40
2017-10-26T15:56:30.645Z,16.87
2017-10-26T16:07:23.246Z,15.87
2017-10-26T16:09:50.860Z,16.60
2017-10-26T16:12:18.399Z,16.00
2017-10-26T16:14:46.007Z,17.63
2017-10-26T16:17:15.445Z,17.60
2017-10-26T16:19:43.027Z,17.40
2017-10-26T16:22:10.660Z,18.00
2017-10-26T16:24:38.245Z,20.93
2017-10-26T16:27:05.788Z,24.20
2017-10-26T16:29:33.367Z,24.67
2017-10-26T16:32:00.914Z,27.20
2017-10-26T16:34:28.479Z,26.40
2017-10-26T16:36:56.063Z,28.20
2017-10-26T16:39:23.597Z,28.93
2017-10-26T16:41:51.349Z,30.80
2017-10-26T16:44:18.937Z,32.22
2017-10-26T16:46:46.490Z,30.17
2017-10-26T16:49:26.272Z,32.17
2017-10-26T16:53:06.290Z,31.52
2017-10-26T16:55:33.889Z,37.87
2017-10-26T16:58:01.436Z,36.22
2017-10-26T17:00:28.969Z,37.22
2017-10-26T17:02:56.537Z,37.57
2017-10-26T17:05:24.081Z,36.50
2017-10-26T17:07:51.624Z,40.20
2017-10-26T17:10:19.404Z,46.73
2017-10-26T17:12:46.944Z,46.87
2017-10-26T17:15:24.570Z,39.60
2017-10-26T17:24:12.143Z,40.90
2017-10-26T17:26:39.674Z,41.17
2017-10-26T17:29:07.230Z,37.93
2017-10-26T17:31:35.584Z,38.37
2017-10-26T17:34:03.181Z,41.30
2017-10-26T17:36:30.741Z,42.28
2017-10-26T17:38:58.355Z,43.80
2017-10-26T17:41:25.907Z,45.07
2017-10-26T17:43:53.456Z,43.40
2017-10-26T17:46:21.077Z,41.83
2017-10-26T17:48:49.401Z,41.63
2017-10-26T17:51:16.964Z,42.00
2017-10-26T17:53:44.599Z,43.50
2017-10-26T17:56:12.139Z,42.77
2017-10-26T17:58:39.684Z,39.97
2017-10-26T18:01:08.023Z,38.83
2017-10-26T18:03:35.559Z,43.97
2017-10-26T18:06:03.093Z,43.30
2017-10-26T18:08:31.437Z,44.88
2017-10-26T18:10:58.981Z,47.30
2017-10-26T18:13:26.527Z,100.93
2017-10-26T18:15:54.111Z,128.90
2017-10-26T18:18:21.664Z,143.30
2017-10-26T18:20:49.201Z,55.10
2017-10-26T18:23:16.784Z,45.47
2017-10-26T18:25:44.321Z,43.90
2017-10-26T18:28:11.860Z,42.43
2017-10-26T18:30:39.427Z,42.80
2017-10-26T18:33:06.976Z,44.63
2017-10-26T18:35:34.520Z,45.28
2017-10-26T18:38:02.103Z,46.97
2017-10-26T18:40:29.643Z,48.63
2017-10-26T18:42:57.944Z,46.40
2017-10-26T18:45:26.102Z,48.97
2017-10-26T18:47:54.424Z,44.30
2017-10-26T18:50:21.975Z,45.40
2017-10-26T18:52:49.546Z,46.13
2017-10-26T18:55:17.578Z,46.40
2017-10-26T18:57:45.955Z,49.90
2017-10-26T19:00:15.621Z,42.88
2017-10-26T19:02:44.073Z,43.93
2017-10-26T19:05:13.775Z,47.83
2017-10-26T19:07:41.583Z,46.70
2017-10-26T19:10:09.127Z,45.50
2017-10-26T19:12:38.412Z,47.20
2017-10-26T19:15:07.253Z,45.03
2017-10-26T19:17:35.560Z,45.83
2017-10-26T19:20:03.092Z,45.67
2017-10-26T19:22:32.387Z,47.10
2017-10-26T19:25:02.209Z,46.15
2017-10-26T19:27:29.775Z,44.70
2017-10-26T19:29:57.343Z,43.90
2017-10-26T19:32:24.895Z,46.53
2017-10-26T19:35:11.336Z,44.22
2017-10-26T19:37:38.901Z,44.73
2017-10-26T19:40:06.444Z,44.23
2017-10-26T19:42:34.052Z,46.03
2017-10-26T19:45:01.612Z,44.50
2017-10-26T19:47:29.607Z,42.33
2017-10-26T19:49:57.172Z,43.87
2017-10-26T19:52:24.724Z,41.30
2017-10-26T19:54:52.264Z,40.60
2017-10-26T19:57:19.986Z,46.13
2017-10-26T19:59:47.525Z,42.80
2017-10-26T20:02:16.429Z,41.70
2017-10-26T20:04:44.016Z,42.07
2017-10-26T20:07:11.555Z,41.33
2017-10-26T20:09:39.090Z,40.53
2017-10-26T20:12:06.660Z,38.90
2017-10-26T20:14:34.208Z,38.80
2017-10-26T20:17:01.755Z,39.40
2017-10-26T20:19:30.085Z,38.50
2017-10-26T20:21:57.625Z,40.40
2017-10-26T20:24:25.165Z,36.10
2017-10-26T20:26:52.752Z,41.50
2017-10-26T20:29:20.284Z,38.58
2017-10-26T20:31:47.819Z,37.30
2017-10-26T20:34:16.449Z,37.78
2017-10-26T20:36:43.978Z,40.57
2017-10-26T20:39:11.511Z,42.90
2017-10-26T20:41:39.087Z,42.47
2017-10-26T20:44:06.620Z,42.23
2017-10-26T20:46:34.153Z,43.60
2017-10-26T20:49:07.971Z,41.30
2017-10-26T20:51:41.000Z,42.63
2017-10-26T20:54:14.144Z,44.80
2017-10-26T20:56:47.268Z,43.17
2017-10-26T20:59:22.851Z,40.05
2017-10-26T21:01:55.968Z,36.97
2017-10-26T21:04:29.272Z,37.05
2017-10-26T21:06:56.815Z,38.17
2017-10-26T21:09:25.279Z,37.88
2017-10-26T21:11:58.727Z,39.40
2017-10-26T21:14:28.218Z,37.80
2017-10-26T21:16:55.759Z,36.63
2017-10-26T21:19:23.340Z,37.20
2017-10-26T21:21:50.878Z,36.67
2017-10-26T21:24:18.423Z,34.58
2017-10-26T21:26:46.055Z,33.13
2017-10-26T21:29:24.734Z,35.53
2017-10-26T21:36:03.849Z,37.93
2017-10-26T21:38:32.156Z,38.70
2017-10-26T21:40:59.687Z,34.30
2017-10-26T21:43:27.284Z,34.70
2017-10-26T21:45:54.820Z,35.70
2017-10-26T21:48:22.359Z,34.27
2017-10-26T21:50:49.924Z,33.70
2017-10-26T21:53:18.223Z,31.92
2017-10-26T21:55:45.755Z,32.47
2017-10-26T21:58:15.411Z,31.80
2017-10-26T22:00:42.944Z,29.30
2017-10-26T22:03:10.484Z,29.95
2017-10-26T22:05:38.072Z,27.63
2017-10-26T22:08:05.616Z,26.27
2017-10-26T22:10:33.384Z,26.85
2017-10-26T22:13:00.968Z,23.63
2017-10-26T22:15:28.517Z,24.20
2017-10-26T22:17:56.056Z,23.60
2017-10-26T22:20:23.620Z,22.03
2017-10-26T22:22:51.911Z,20.30
2017-10-26T22:25:19.464Z,19.25
2017-10-26T22:27:47.043Z,18.07
2017-10-26T22:30:15.540Z,16.87
2017-10-26T22:32:43.071Z,16.50
2017-10-26T22:35:10.624Z,16.87
2017-10-26T22:37:38.168Z,17.27
2017-10-26T22:40:05.712Z,17.30
2017-10-26T22:42:33.275Z,15.85
2017-10-26T22:45:00.812Z,15.60
2017-10-26T22:47:28.370Z,15.90
2017-10-26T22:49:55.988Z,15.17
2017-10-26T22:52:23.667Z,14.73
2017-10-26T22:54:51.974Z,14.60
2017-10-26T22:57:19.556Z,13.77
2017-10-26T22:59:47.101Z,13.30
2017-10-26T23:02:26.694Z,13.67
2017-10-26T23:07:33.438Z,13.00
2017-10-26T23:10:00.984Z,13.70
2017-10-26T23:12:28.525Z,13.95
2017-10-26T23:14:56.084Z,13.63
2017-10-26T23:17:23.629Z,13.10
2017-10-26T23:19:51.158Z,12.43
2017-10-26T23:22:19.044Z,12.37
2017-10-26T23:24:46.625Z,11.80
2017-10-26T23:27:16.347Z,10.75
2017-10-26T23:29:44.107Z,11.57
2017-10-26T23:32:11.650Z,10.70
2017-10-26T23:34:39.188Z,11.80
2017-10-26T23:37:06.795Z,10.77
2017-10-26T23:39:34.361Z,11.27
2017-10-26T23:42:01.914Z,9.83
2017-10-26T23:44:29.537Z,10.23
2017-10-26T23:46:57.182Z,9.67
2017-10-26T23:49:24.922Z,9.90
2017-10-26T23:51:53.313Z,9.50
2017-10-26T23:54:21.114Z,9.32
2017-10-26T23:56:48.777Z,9.60
2017-10-26T23:59:16.875Z,9.90
